createdAt,value
2022-10-10T00:01:27.678Z,100530.13
2022-10-10T00:03:57.456Z,100414.94
2022-10-10T00:06:30.350Z,100519.44
2022-10-10T00:09:00.696Z,100509.75
2022-10-10T00:11:28.953Z,100523.38
2022-10-10T00:13:57.003Z,100484.47
2022-10-10T00:16:25.829Z,100508.03
2022-10-10T00:18:53.855Z,100493.25
2022-10-10T00:21:23.133Z,100501.06
2022-10-10T00:23:50.946Z,100499.19
2022-10-10T00:26:19.569Z,100505.97
2022-10-10T00:28:47.568Z,100463.72
2022-10-10T00:31:15.989Z,100501.69
2022-10-10T00:33:43.925Z,100494.88
2022-10-10T00:36:12.016Z,100489.53
2022-10-10T00:38:41.257Z,100490.44
2022-10-10T00:41:09.150Z,100478.97
2022-10-10T00:43:37.190Z,100486.94
2022-10-10T00:46:05.087Z,100321.06
2022-10-10T00:48:35.175Z,100481.50
2022-10-10T00:51:06.050Z,100476.19
2022-10-10T00:53:37.552Z,100474.66
2022-10-10T00:56:08.472Z,100472.94
2022-10-10T00:58:40.517Z,100481.84
2022-10-10T01:01:09.001Z,100463.38
2022-10-10T01:03:36.971Z,100464.16
2022-10-10T01:06:05.531Z,100468.75
2022-10-10T01:08:34.369Z,100432.66
2022-10-10T01:11:29.800Z,100458.13
2022-10-10T01:14:07.651Z,100431.06
2022-10-10T01:16:46.069Z,100458.28
2022-10-10T01:19:36.854Z,100456.50
2022-10-10T01:22:21.670Z,100435.47
2022-10-10T01:24:58.995Z,100449.47
2022-10-10T01:27:32.024Z,100445.88
2022-10-10T01:30:07.138Z,100449.34
2022-10-10T01:32:40.764Z,100368.81
2022-10-10T01:35:27.232Z,100441.69
2022-10-10T01:38:04.026Z,100417.03
2022-10-10T01:40:40.577Z,100441.47
2022-10-10T01:43:09.844Z,100373.81
2022-10-10T01:45:39.079Z,100431.84
2022-10-10T01:48:08.582Z,100413.38
2022-10-10T01:50:43.825Z,100433.41
2022-10-10T01:53:21.941Z,100426.47
2022-10-10T01:55:57.300Z,100279.94
2022-10-10T01:58:52.645Z,100431.13
2022-10-10T02:01:27.928Z,100268.66
2022-10-10T02:04:04.214Z,100406.38
2022-10-10T02:06:39.838Z,100424.69
2022-10-10T02:09:12.887Z,100423.78
2022-10-10T02:11:42.453Z,100427.94
2022-10-10T02:14:18.380Z,100420.09
2022-10-10T02:16:51.946Z,100395.50
2022-10-10T02:19:22.289Z,100385.16
2022-10-10T02:21:52.036Z,100424.94
2022-10-10T02:24:21.899Z,100417.81
2022-10-10T02:26:54.530Z,100408.06
2022-10-10T02:29:27.927Z,100414.31
2022-10-10T02:32:04.423Z,100410.81
2022-10-10T02:34:36.460Z,100424.03
2022-10-10T02:37:06.710Z,100376.53
2022-10-10T02:39:36.995Z,100425.78
2022-10-10T02:42:07.180Z,100424.69
2022-10-10T02:44:35.332Z,100423.22
2022-10-10T02:47:05.041Z,100423.22
2022-10-10T02:49:35.192Z,100418.78
2022-10-10T02:52:03.908Z,100412.38
2022-10-10T02:54:31.815Z,100415.03
2022-10-10T02:56:59.667Z,100415.91
2022-10-10T02:59:27.639Z,100417.97
2022-10-10T03:01:55.585Z,100415.19
2022-10-10T03:04:24.788Z,100394.06
2022-10-10T03:06:53.711Z,100383.47
2022-10-10T03:09:21.840Z,100402.59
2022-10-10T03:11:49.782Z,100394.50
2022-10-10T03:14:17.619Z,100397.28
2022-10-10T03:16:45.470Z,100377.22
2022-10-10T03:19:13.430Z,100396.56
2022-10-10T03:21:42.617Z,100393.91
2022-10-10T03:24:10.577Z,100386.06
2022-10-10T03:26:38.433Z,100364.94
2022-10-10T03:29:06.806Z,100367.63
2022-10-10T03:31:34.716Z,100390.50
2022-10-10T03:34:02.600Z,100394.06
2022-10-10T03:36:31.287Z,100395.88
2022-10-10T03:39:00.637Z,100390.59
2022-10-10T03:41:28.567Z,100395.00
2022-10-10T03:43:56.408Z,100386.16
2022-10-10T03:46:24.517Z,100345.50
2022-10-10T03:48:52.609Z,100340.44
2022-10-10T03:51:21.070Z,100381.72
2022-10-10T03:53:48.857Z,100386.31
2022-10-10T03:56:18.018Z,100375.41
2022-10-10T03:58:45.864Z,100369.97
2022-10-10T04:01:13.731Z,100351.63
2022-10-10T04:03:41.895Z,100369.81
2022-10-10T04:06:09.740Z,100360.00
2022-10-10T04:08:37.597Z,100368.50
2022-10-10T04:11:05.756Z,100356.97
2022-10-10T04:13:35.126Z,100355.06
2022-10-10T04:16:02.965Z,100354.41
2022-10-10T04:18:30.751Z,100319.97
2022-10-10T04:20:58.686Z,100335.19
2022-10-10T04:23:26.494Z,100340.22
2022-10-10T04:25:54.652Z,100350.53
2022-10-10T04:28:22.797Z,100347.94
2022-10-10T04:30:52.513Z,100329.66
2022-10-10T04:33:20.396Z,100180.56
2022-10-10T04:35:50.132Z,100314.72
2022-10-10T04:38:19.976Z,100333.06
2022-10-10T04:40:49.819Z,100326.44
2022-10-10T04:43:18.425Z,100333.66
2022-10-10T04:45:46.330Z,100208.06
2022-10-10T04:48:15.615Z,100230.03
2022-10-10T04:50:43.714Z,100307.22
2022-10-10T04:53:11.807Z,100322.19
2022-10-10T04:55:39.677Z,100322.09
2022-10-10T04:58:07.520Z,100324.84
2022-10-10T05:00:35.368Z,100302.50
2022-10-10T05:03:03.286Z,100320.03
2022-10-10T05:05:33.303Z,100306.69
2022-10-10T05:08:01.211Z,100323.25
2022-10-10T05:10:29.129Z,100285.56
2022-10-10T05:12:57.037Z,100318.72
2022-10-10T05:15:24.907Z,100297.94
2022-10-10T05:17:52.741Z,100314.53
2022-10-10T05:20:20.595Z,100318.72
2022-10-10T05:22:50.220Z,100298.72
2022-10-10T05:25:18.260Z,100325.69
2022-10-10T05:27:46.406Z,100319.44
2022-10-10T05:30:14.446Z,100320.47
2022-10-10T05:32:42.687Z,100318.00
2022-10-10T05:35:10.793Z,100297.91
2022-10-10T05:37:39.100Z,100299.66
2022-10-10T05:40:09.697Z,100243.50
2022-10-10T05:42:37.540Z,100313.63
2022-10-10T05:45:05.948Z,100310.13
2022-10-10T05:47:33.838Z,100283.25
2022-10-10T05:50:01.607Z,100294.56
2022-10-10T05:52:29.594Z,100277.16
2022-10-10T05:54:57.435Z,100286.00
2022-10-10T05:57:26.955Z,100320.25
2022-10-10T05:59:54.914Z,100309.28
2022-10-10T06:02:22.825Z,100295.53
2022-10-10T06:04:50.639Z,100078.06
2022-10-10T06:07:18.680Z,100300.28
2022-10-10T06:09:46.887Z,100309.78
2022-10-10T06:12:14.757Z,100311.53
2022-10-10T06:14:44.075Z,100322.78
2022-10-10T06:17:12.175Z,100271.75
2022-10-10T06:19:40.017Z,100320.09
2022-10-10T06:22:07.875Z,100308.72
2022-10-10T06:24:35.737Z,100320.91
2022-10-10T06:27:03.725Z,100320.63
2022-10-10T06:29:31.539Z,100325.97
2022-10-10T06:32:00.768Z,100304.97
2022-10-10T06:34:29.243Z,100307.50
2022-10-10T06:36:57.161Z,100327.84
2022-10-10T06:39:25.197Z,100327.75
2022-10-10T06:41:52.998Z,100340.03
2022-10-10T06:44:21.177Z,100334.63
2022-10-10T06:46:49.053Z,100328.16
2022-10-10T06:49:18.291Z,100334.16
2022-10-10T06:51:46.122Z,100334.81
2022-10-10T06:54:14.391Z,100260.81
2022-10-10T06:56:42.176Z,100328.69
2022-10-10T06:59:10.060Z,100332.59
2022-10-10T07:01:37.982Z,100312.75
2022-10-10T07:04:06.391Z,100336.09
2022-10-10T07:06:35.687Z,100337.97
2022-10-10T07:09:03.560Z,100332.88
2022-10-10T07:11:31.465Z,100264.09
2022-10-10T07:13:59.637Z,100312.44
2022-10-10T07:16:27.632Z,100327.41
2022-10-10T07:18:55.723Z,100291.25
2022-10-10T07:21:23.600Z,100236.28
2022-10-10T07:23:52.803Z,100226.28
2022-10-10T07:26:22.379Z,100338.78
2022-10-10T07:28:50.283Z,100343.38
2022-10-10T07:31:18.158Z,100340.00
2022-10-10T07:33:50.742Z,100306.19
2022-10-10T07:36:19.407Z,100339.16
2022-10-10T07:38:53.050Z,100332.41
2022-10-10T07:41:21.704Z,100223.63
2022-10-10T07:43:49.714Z,100322.44
2022-10-10T07:46:20.384Z,100323.28
2022-10-10T07:48:49.212Z,100306.66
2022-10-10T07:51:17.291Z,100284.81
2022-10-10T07:53:45.198Z,100308.81
2022-10-10T07:56:14.381Z,100295.16
2022-10-10T07:58:42.250Z,100267.97
2022-10-10T08:01:13.046Z,100267.97
2022-10-10T08:03:41.675Z,100206.84
2022-10-10T08:06:12.283Z,100306.56
2022-10-10T08:08:50.018Z,100285.38
2022-10-10T08:11:20.817Z,100304.31
2022-10-10T08:13:49.016Z,100289.28
2022-10-10T08:16:17.033Z,100300.31
2022-10-10T08:18:44.995Z,100300.31
2022-10-10T08:21:14.796Z,100296.88
2022-10-10T08:23:42.664Z,100297.44
2022-10-10T08:26:12.563Z,100298.25
2022-10-10T08:28:42.471Z,100284.22
2022-10-10T08:31:12.432Z,100292.41
2022-10-10T08:33:42.122Z,100294.75
2022-10-10T08:36:12.245Z,100293.63
2022-10-10T08:38:40.296Z,100280.09
2022-10-10T08:41:11.244Z,100253.53
2022-10-10T08:43:47.328Z,100283.59
2022-10-10T08:46:19.347Z,100277.78
2022-10-10T08:48:50.464Z,100280.53
2022-10-10T08:51:26.486Z,100279.31
2022-10-10T08:53:58.640Z,100285.31
2022-10-10T08:56:30.007Z,100287.19
2022-10-10T08:59:05.062Z,100290.16
2022-10-10T09:01:36.294Z,100235.88
2022-10-10T09:04:24.322Z,100280.44
2022-10-10T09:07:11.312Z,100274.97
2022-10-10T09:09:45.392Z,100268.94
2022-10-10T09:12:23.528Z,100269.50
2022-10-10T09:15:02.466Z,100254.31
2022-10-10T09:17:39.095Z,100269.66
2022-10-10T09:20:30.857Z,100273.34
2022-10-10T09:23:04.230Z,100268.97
2022-10-10T09:25:39.008Z,100263.88
2022-10-10T09:28:12.906Z,100249.06
2022-10-10T09:30:52.381Z,100257.19
2022-10-10T09:33:27.680Z,100258.63
2022-10-10T09:35:58.963Z,100260.03
2022-10-10T09:38:34.198Z,100262.31
2022-10-10T09:41:08.370Z,100230.13
2022-10-10T09:43:36.850Z,100251.03
2022-10-10T09:46:07.181Z,100253.41
2022-10-10T09:48:35.664Z,100250.53
2022-10-10T09:51:05.454Z,100268.63
2022-10-10T09:53:33.905Z,100240.91
2022-10-10T09:56:02.774Z,100261.69
2022-10-10T09:58:35.513Z,100260.75
2022-10-10T10:01:19.950Z,100271.09
2022-10-10T10:04:29.720Z,100271.09
2022-10-10T10:07:08.795Z,100270.72
2022-10-10T10:09:36.803Z,100208.84
2022-10-10T10:12:06.931Z,100271.78
2022-10-10T10:14:39.021Z,100267.06
2022-10-10T10:17:11.146Z,100242.81
2022-10-10T10:19:40.592Z,100279.38
2022-10-10T10:22:26.757Z,100270.00
2022-10-10T10:24:55.511Z,100280.63
2022-10-10T10:27:25.252Z,100271.53
2022-10-10T10:29:54.745Z,100268.28
2022-10-10T10:32:38.586Z,100273.44
2022-10-10T10:35:20.544Z,100248.81
2022-10-10T10:38:01.686Z,100256.53
2022-10-10T10:40:35.194Z,100277.38
2022-10-10T10:43:29.184Z,100256.53
2022-10-10T10:46:07.657Z,100276.00
2022-10-10T10:48:43.733Z,100266.25
2022-10-10T10:51:27.508Z,100268.81
2022-10-10T10:54:07.148Z,100265.31
2022-10-10T10:56:40.020Z,100269.19
2022-10-10T10:59:39.030Z,100252.63
2022-10-10T11:02:54.679Z,100231.16
2022-10-10T11:05:41.287Z,100263.91
2022-10-10T11:08:36.620Z,100266.84
2022-10-10T11:11:18.575Z,100259.44
2022-10-10T11:13:57.058Z,100258.38
2022-10-10T11:16:47.560Z,100255.47
2022-10-10T11:19:25.562Z,100256.84
2022-10-10T11:22:01.734Z,100257.41
2022-10-10T11:24:37.454Z,100252.50
2022-10-10T11:27:12.213Z,100266.50
2022-10-10T11:29:53.225Z,100256.78
2022-10-10T11:32:27.584Z,100261.69
2022-10-10T11:35:13.329Z,100264.56
2022-10-10T11:37:47.233Z,100255.47
2022-10-10T11:40:28.204Z,100126.25
2022-10-10T11:43:00.222Z,100237.31
2022-10-10T11:45:32.921Z,100231.25
2022-10-10T11:48:07.844Z,100226.31
2022-10-10T11:50:40.832Z,100246.06
2022-10-10T11:53:18.622Z,100242.97
2022-10-10T11:55:51.917Z,100250.66
2022-10-10T11:58:29.355Z,100220.16
2022-10-10T12:01:01.991Z,100244.81
2022-10-10T12:03:29.817Z,100208.91
2022-10-10T12:06:04.223Z,100244.13
2022-10-10T12:08:38.463Z,100212.09
2022-10-10T12:11:12.575Z,100234.50
2022-10-10T12:13:43.165Z,100251.28
2022-10-10T12:16:15.398Z,100255.50
2022-10-10T12:18:45.781Z,100227.13
2022-10-10T12:21:16.053Z,100221.81
2022-10-10T12:23:48.357Z,100238.59
2022-10-10T12:26:18.397Z,100241.31
2022-10-10T12:29:01.536Z,100236.25
2022-10-10T12:31:31.746Z,100238.69
2022-10-10T12:34:00.799Z,100244.88
2022-10-10T12:36:56.842Z,100240.94
2022-10-10T12:39:40.312Z,100235.09
2022-10-10T12:42:30.805Z,100239.13
2022-10-10T12:44:58.974Z,100204.50
2022-10-10T12:48:03.937Z,100227.72
2022-10-10T12:50:34.629Z,100231.06
2022-10-10T12:53:05.044Z,100224.25
2022-10-10T12:55:43.420Z,100219.69
2022-10-10T12:58:26.067Z,100206.59
2022-10-10T13:00:57.710Z,100193.38
2022-10-10T13:03:31.090Z,100198.91
2022-10-10T13:06:08.840Z,100219.09
2022-10-10T13:08:38.445Z,100202.41
2022-10-10T13:11:11.299Z,100203.50
2022-10-10T13:13:40.280Z,100216.00
2022-10-10T13:16:10.983Z,100211.66
2022-10-10T13:18:40.743Z,100211.03
2022-10-10T13:21:10.451Z,100212.19
2022-10-10T13:23:43.806Z,100220.66
2022-10-10T13:26:23.653Z,100231.72
2022-10-10T13:28:54.233Z,100228.00
2022-10-10T13:31:22.113Z,100212.72
2022-10-10T13:33:50.235Z,100194.59
2022-10-10T13:36:21.852Z,100235.56
2022-10-10T13:38:50.992Z,100202.19
2022-10-10T13:41:22.065Z,100209.63
2022-10-10T13:43:50.444Z,100239.13
2022-10-10T13:46:23.282Z,100198.50
2022-10-10T13:48:51.649Z,100231.13
2022-10-10T13:51:20.312Z,100238.50
2022-10-10T13:53:55.188Z,100117.53
2022-10-10T13:56:41.605Z,100237.16
2022-10-10T13:59:14.109Z,100245.00
2022-10-10T14:01:44.157Z,100239.88
2022-10-10T14:04:23.416Z,100249.81
2022-10-10T14:06:58.954Z,100247.66
2022-10-10T14:09:31.761Z,100249.41
2022-10-10T14:12:02.609Z,100246.44
2022-10-10T14:14:36.486Z,100266.06
2022-10-10T14:17:06.325Z,100261.94
2022-10-10T14:19:34.875Z,100265.38
2022-10-10T14:22:02.756Z,100270.78
2022-10-10T14:24:31.104Z,100276.63
2022-10-10T14:26:59.603Z,100267.09
2022-10-10T14:29:28.847Z,100258.06
2022-10-10T14:31:56.699Z,100209.50
2022-10-10T14:34:24.529Z,100268.59
2022-10-10T14:36:52.437Z,100268.25
2022-10-10T14:39:21.003Z,100257.34
2022-10-10T14:41:48.905Z,100261.56
2022-10-10T14:44:16.703Z,100269.59
2022-10-10T14:46:46.044Z,100268.72
2022-10-10T14:49:19.510Z,100246.81
2022-10-10T14:51:48.062Z,100250.50
2022-10-10T14:54:16.173Z,100193.16
2022-10-10T14:57:07.195Z,100276.06
2022-10-10T14:59:46.497Z,100264.50
2022-10-10T15:02:20.814Z,100251.59
2022-10-10T15:04:48.926Z,100280.63
2022-10-10T15:07:17.206Z,100272.50
2022-10-10T15:10:02.974Z,100284.91
2022-10-10T15:12:34.261Z,100280.25
2022-10-10T15:15:02.154Z,100220.47
2022-10-10T15:17:34.275Z,100264.13
2022-10-10T15:20:02.750Z,100267.09
2022-10-10T15:22:31.171Z,100283.06
2022-10-10T15:24:59.454Z,100263.69
2022-10-10T15:27:28.359Z,100272.66
2022-10-10T15:29:56.486Z,100282.34
2022-10-10T15:32:24.414Z,100275.06
2022-10-10T15:34:53.987Z,100290.31
2022-10-10T15:37:24.868Z,100291.94
2022-10-10T15:39:52.784Z,100277.84
2022-10-10T15:42:23.024Z,100289.81
2022-10-10T15:44:51.934Z,100295.31
2022-10-10T15:47:20.634Z,100304.50
2022-10-10T15:49:48.883Z,100307.69
2022-10-10T15:52:18.787Z,100312.06
2022-10-10T15:54:49.787Z,100280.97
2022-10-10T15:57:19.039Z,100313.69
2022-10-10T15:59:47.549Z,100315.44
2022-10-10T16:02:15.913Z,100320.66
2022-10-10T16:04:44.617Z,100334.47
2022-10-10T16:07:26.855Z,100229.91
2022-10-10T16:09:58.945Z,100330.03
2022-10-10T16:12:26.965Z,100328.09
2022-10-10T16:14:54.917Z,100317.28
2022-10-10T16:17:23.700Z,100349.66
2022-10-10T16:19:51.833Z,100348.03
2022-10-10T16:22:20.172Z,100356.00
2022-10-10T16:25:10.122Z,100302.13
2022-10-10T16:27:38.231Z,100361.91
2022-10-10T16:30:07.591Z,100353.13
2022-10-10T16:32:40.832Z,100371.75
2022-10-10T16:35:10.912Z,100378.69
2022-10-10T16:37:39.002Z,100360.34
2022-10-10T16:40:07.933Z,100369.78
2022-10-10T16:42:37.414Z,100385.47
2022-10-10T16:45:06.220Z,100393.06
2022-10-10T16:47:34.128Z,100396.13
2022-10-10T16:50:02.325Z,100395.03
2022-10-10T16:52:30.427Z,100409.53
2022-10-10T16:54:58.574Z,100427.00
2022-10-10T16:57:26.546Z,100427.09
2022-10-10T16:59:55.762Z,100436.44
2022-10-10T17:02:25.013Z,100437.84
2022-10-10T17:04:54.144Z,100422.59
2022-10-10T17:07:22.286Z,100409.63
2022-10-10T17:09:50.324Z,100436.31
2022-10-10T17:12:19.426Z,100447.25
2022-10-10T17:14:47.224Z,100440.34
2022-10-10T17:17:17.432Z,100461.09
2022-10-10T17:19:45.326Z,100459.31
2022-10-10T17:22:13.227Z,100467.44
2022-10-10T17:24:41.022Z,100481.06
2022-10-10T17:27:08.833Z,100495.94
2022-10-10T17:29:36.745Z,100503.38
2022-10-10T17:32:06.739Z,100509.97
2022-10-10T17:34:36.629Z,100510.47
2022-10-10T17:37:04.996Z,100517.44
2022-10-10T17:39:32.952Z,100526.97
2022-10-10T17:42:01.122Z,100401.75
2022-10-10T17:44:29.146Z,100515.78
2022-10-10T17:46:57.032Z,100529.44
2022-10-10T17:49:25.028Z,100545.84
2022-10-10T17:51:54.346Z,100551.88
2022-10-10T17:54:23.492Z,100542.72
2022-10-10T17:56:51.484Z,100564.97
2022-10-10T17:59:19.478Z,100557.38
2022-10-10T18:01:47.290Z,100559.34
2022-10-10T18:04:16.437Z,100567.28
2022-10-10T18:06:44.314Z,100575.84
2022-10-10T18:09:13.624Z,100583.28
2022-10-10T18:11:41.534Z,100581.69
2022-10-10T18:14:09.359Z,100558.81
2022-10-10T18:16:37.262Z,100583.53
2022-10-10T18:19:07.357Z,100588.34
2022-10-10T18:21:35.878Z,100593.94
2022-10-10T18:24:03.764Z,100513.25
2022-10-10T18:26:34.833Z,100593.81
2022-10-10T18:29:02.727Z,100602.94
2022-10-10T18:31:33.064Z,100613.09
2022-10-10T18:34:01.813Z,100615.66
2022-10-10T18:36:33.129Z,100600.94
2022-10-10T18:39:03.002Z,100549.84
2022-10-10T18:41:34.325Z,100621.63
2022-10-10T18:44:03.542Z,100552.63
2022-10-10T18:46:31.650Z,100585.72
2022-10-10T18:48:59.924Z,100630.50
2022-10-10T18:51:29.694Z,100618.03
2022-10-10T18:54:02.006Z,100626.50
2022-10-10T18:56:31.120Z,100635.38
2022-10-10T18:59:02.133Z,100636.88
2022-10-10T19:01:32.704Z,100626.47
2022-10-10T19:04:01.477Z,100623.72
2022-10-10T19:06:29.675Z,100645.75
2022-10-10T19:08:59.328Z,100606.34
2022-10-10T19:11:29.929Z,100665.34
2022-10-10T19:13:59.322Z,100659.00
2022-10-10T19:16:29.036Z,100575.66
2022-10-10T19:18:58.739Z,100650.38
2022-10-10T19:21:27.854Z,100688.97
2022-10-10T19:23:56.133Z,100689.63
2022-10-10T19:26:24.152Z,100672.28
2022-10-10T19:28:52.153Z,100700.56
2022-10-10T19:31:21.092Z,100725.28
2022-10-10T19:33:53.729Z,100721.28
2022-10-10T19:36:21.541Z,100736.41
2022-10-10T19:38:49.404Z,100680.78
2022-10-10T19:41:17.385Z,100738.56
2022-10-10T19:43:48.843Z,100735.13
2022-10-10T19:46:18.272Z,100722.75
2022-10-10T19:48:46.173Z,100749.31
2022-10-10T19:51:17.298Z,100657.88
2022-10-10T19:53:46.144Z,100764.38
2022-10-10T19:56:16.306Z,100777.31
2022-10-10T19:58:44.469Z,100776.50
2022-10-10T20:01:14.523Z,100796.69
2022-10-10T20:03:42.549Z,100789.31
2022-10-10T20:06:10.779Z,100767.75
2022-10-10T20:08:40.019Z,100796.75
2022-10-10T20:11:08.083Z,100799.56
2022-10-10T20:13:36.123Z,100790.44
2022-10-10T20:16:06.963Z,100687.03
2022-10-10T20:18:36.983Z,100750.47
2022-10-10T20:21:15.537Z,100783.00
2022-10-10T20:23:47.154Z,100805.38
2022-10-10T20:26:17.207Z,100826.56
2022-10-10T20:28:46.147Z,100782.09
2022-10-10T20:31:20.001Z,100830.34
2022-10-10T20:33:49.807Z,100819.00
2022-10-10T20:36:19.099Z,100835.38
2022-10-10T20:38:52.525Z,100838.38
2022-10-10T20:41:20.689Z,100740.34
2022-10-10T20:43:48.642Z,100811.53
2022-10-10T20:46:16.509Z,100847.09
2022-10-10T20:48:44.477Z,100847.78
2022-10-10T20:51:14.082Z,100772.84
2022-10-10T20:53:42.812Z,100856.47
2022-10-10T20:56:13.928Z,100846.00
2022-10-10T20:58:42.047Z,100834.09
2022-10-10T21:01:12.059Z,100857.47
2022-10-10T21:03:40.568Z,100881.41
2022-10-10T21:06:10.334Z,100866.91
2022-10-10T21:08:38.622Z,100840.03
2022-10-10T21:11:08.594Z,100890.88
2022-10-10T21:13:40.580Z,100892.06
2022-10-10T21:16:10.325Z,100867.13
2022-10-10T21:18:38.445Z,100902.53
2022-10-10T21:21:07.335Z,100914.28
2022-10-10T21:23:38.028Z,100910.34
2022-10-10T21:26:07.600Z,100900.97
2022-10-10T21:28:37.761Z,100920.78
2022-10-10T21:31:06.228Z,100884.97
2022-10-10T21:33:35.043Z,100929.19
2022-10-10T21:36:03.226Z,100924.88
2022-10-10T21:38:31.621Z,100927.91
2022-10-10T21:41:05.891Z,100936.69
2022-10-10T21:43:34.455Z,100943.13
2022-10-10T21:46:09.167Z,100928.31
2022-10-10T21:48:37.099Z,100952.81
2022-10-10T21:51:05.611Z,100931.53
2022-10-10T21:53:33.578Z,100914.09
2022-10-10T21:56:06.349Z,100961.59
2022-10-10T21:58:36.619Z,100960.72
2022-10-10T22:01:09.995Z,100939.41
2022-10-10T22:03:37.989Z,100970.38
2022-10-10T22:06:07.862Z,100945.09
2022-10-10T22:08:36.185Z,100974.34
2022-10-10T22:11:05.217Z,100974.56
2022-10-10T22:13:33.135Z,100944.63
2022-10-10T22:16:01.554Z,100965.19
2022-10-10T22:18:31.209Z,100983.81
2022-10-10T22:20:59.585Z,100992.88
2022-10-10T22:23:27.402Z,100994.00
2022-10-10T22:25:55.239Z,100996.03
2022-10-10T22:28:23.275Z,100993.44
2022-10-10T22:30:51.200Z,101000.13
2022-10-10T22:33:19.033Z,100997.84
2022-10-10T22:35:48.420Z,101001.34
2022-10-10T22:38:16.422Z,100994.47
2022-10-10T22:40:44.232Z,101004.41
2022-10-10T22:43:12.060Z,101001.69
2022-10-10T22:45:40.668Z,101002.75
2022-10-10T22:48:08.678Z,101002.94
2022-10-10T22:50:36.460Z,100994.84
2022-10-10T22:53:06.583Z,100896.19
2022-10-10T22:55:34.654Z,101011.53
2022-10-10T22:58:02.440Z,101004.53
2022-10-10T23:00:30.352Z,100884.41
2022-10-10T23:02:58.860Z,101011.19
2022-10-10T23:05:26.803Z,101017.47
2022-10-10T23:07:54.682Z,101014.97
2022-10-10T23:10:23.922Z,101002.34
2022-10-10T23:12:51.870Z,101004.59
2022-10-10T23:15:19.754Z,101012.81
2022-10-10T23:17:47.578Z,100883.13
2022-10-10T23:20:15.373Z,101014.53
2022-10-10T23:22:43.150Z,100891.31
2022-10-10T23:25:11.032Z,101000.41
2022-10-10T23:27:40.281Z,101024.22
2022-10-10T23:30:08.839Z,101019.81
2022-10-10T23:32:36.678Z,101012.00
2022-10-10T23:35:04.983Z,101023.50
2022-10-10T23:37:32.907Z,101011.38
2022-10-10T23:40:00.843Z,101028.13
2022-10-10T23:42:28.798Z,101006.25
2022-10-10T23:44:58.045Z,101035.34
2022-10-10T23:47:26.227Z,101032.66
2022-10-10T23:49:54.080Z,101051.53
2022-10-10T23:52:21.902Z,101049.28
2022-10-10T23:54:49.732Z,101029.72
2022-10-10T23:57:17.555Z,101054.69
2022-10-10T23:59:45.388Z,101023.03
